sensor_id;sensor_type;location;lat;lon;timestamp;noise_LAeq;noise_LA_min;noise_LA_max;noise_LA01;noise_LA95
56099;Laerm;44276;49.534;6.378;2023-02-18T00:01:42;42.66;41.14;43.72;;
56099;Laerm;44276;49.534;6.378;2023-02-18T00:04:10;42.68;41.14;43.77;;
56099;Laerm;44276;49.534;6.378;2023-02-18T00:06:39;42.68;41.46;43.77;;
56099;Laerm;44276;49.534;6.378;2023-02-18T00:09:07;42.67;41.06;43.68;;
56099;Laerm;44276;49.534;6.378;2023-02-18T00:11:36;42.67;41.30;43.81;;
56099;Laerm;44276;49.534;6.378;2023-02-18T00:14:10;42.67;41.46;43.72;;
56099;Laerm;44276;49.534;6.378;2023-02-18T00:16:40;42.70;41.46;44.39;;
56099;Laerm;44276;49.534;6.378;2023-02-18T00:19:13;42.68;41.46;44.03;;
56099;Laerm;44276;49.534;6.378;2023-02-18T00:21:43;42.68;41.22;43.90;;
56099;Laerm;44276;49.534;6.378;2023-02-18T00:24:13;42.68;40.98;43.77;;
56099;Laerm;44276;49.534;6.378;2023-02-18T00:26:43;42.68;41.30;43.68;;
56099;Laerm;44276;49.534;6.378;2023-02-18T00:29:12;42.69;41.30;44.23;;
56099;Laerm;44276;49.534;6.378;2023-02-18T00:31:41;42.70;41.14;44.73;;
56099;Laerm;44276;49.534;6.378;2023-02-18T00:34:11;42.66;41.46;43.77;;
56099;Laerm;44276;49.534;6.378;2023-02-18T00:36:40;42.67;41.38;43.72;;
56099;Laerm;44276;49.534;6.378;2023-02-18T00:39:10;42.65;41.38;43.72;;
56099;Laerm;44276;49.534;6.378;2023-02-18T00:41:40;42.65;40.80;43.77;;
56099;Laerm;44276;49.534;6.378;2023-02-18T00:44:08;42.65;41.22;43.72;;
56099;Laerm;44276;49.534;6.378;2023-02-18T00:46:39;42.65;41.22;43.77;;
56099;Laerm;44276;49.534;6.378;2023-02-18T00:49:08;42.65;41.46;43.81;;
56099;Laerm;44276;49.534;6.378;2023-02-18T00:51:37;42.68;41.22;44.03;;
56099;Laerm;44276;49.534;6.378;2023-02-18T00:54:05;42.67;41.30;43.86;;
56099;Laerm;44276;49.534;6.378;2023-02-18T00:56:34;42.65;41.22;43.93;;
56099;Laerm;44276;49.534;6.378;2023-02-18T00:59:02;42.64;41.30;43.63;;
56099;Laerm;44276;49.534;6.378;2023-02-18T01:01:30;42.64;41.22;43.77;;
56099;Laerm;44276;49.534;6.378;2023-02-18T01:04:00;42.65;41.46;44.11;;
56099;Laerm;44276;49.534;6.378;2023-02-18T01:06:29;42.69;41.46;43.94;;
56099;Laerm;44276;49.534;6.378;2023-02-18T01:08:57;42.66;41.38;45.11;;
56099;Laerm;44276;49.534;6.378;2023-02-18T01:11:25;42.66;41.30;43.77;;
56099;Laerm;44276;49.534;6.378;2023-02-18T01:13:53;42.65;41.38;43.68;;
56099;Laerm;44276;49.534;6.378;2023-02-18T01:16:22;42.64;41.38;43.86;;
56099;Laerm;44276;49.534;6.378;2023-02-18T01:18:51;42.61;41.30;43.72;;
56099;Laerm;44276;49.534;6.378;2023-02-18T01:21:20;42.62;41.14;43.77;;
56099;Laerm;44276;49.534;6.378;2023-02-18T01:23:49;42.64;41.14;43.77;;
56099;Laerm;44276;49.534;6.378;2023-02-18T01:26:17;42.63;41.06;43.63;;
56099;Laerm;44276;49.534;6.378;2023-02-18T01:28:45;42.62;40.89;43.81;;
56099;Laerm;44276;49.534;6.378;2023-02-18T01:31:14;42.63;41.30;43.86;;
56099;Laerm;44276;49.534;6.378;2023-02-18T01:33:43;42.61;40.98;43.81;;
56099;Laerm;44276;49.534;6.378;2023-02-18T01:36:12;42.63;40.98;43.81;;
56099;Laerm;44276;49.534;6.378;2023-02-18T01:38:41;42.60;41.38;43.77;;
56099;Laerm;44276;49.534;6.378;2023-02-18T01:41:10;42.67;41.33;48.34;;
56099;Laerm;44276;49.534;6.378;2023-02-18T01:43:39;42.71;41.38;45.86;;
56099;Laerm;44276;49.534;6.378;2023-02-18T01:46:15;42.64;41.22;43.81;;
56099;Laerm;44276;49.534;6.378;2023-02-18T01:48:50;42.61;41.38;43.77;;
56099;Laerm;44276;49.534;6.378;2023-02-18T01:51:24;42.61;41.22;43.86;;
56099;Laerm;44276;49.534;6.378;2023-02-18T01:53:59;42.60;41.30;43.72;;
56099;Laerm;44276;49.534;6.378;2023-02-18T01:56:41;42.59;41.38;43.72;;
56099;Laerm;44276;49.534;6.378;2023-02-18T01:59:19;42.68;41.06;44.65;;
56099;Laerm;44276;49.534;6.378;2023-02-18T02:01:49;42.60;41.14;44.11;;
56099;Laerm;44276;49.534;6.378;2023-02-18T02:04:18;42.61;40.89;43.90;;
56099;Laerm;44276;49.534;6.378;2023-02-18T02:06:47;42.68;41.22;44.87;;
56099;Laerm;44276;49.534;6.378;2023-02-18T02:09:20;42.64;41.38;44.11;;
56099;Laerm;44276;49.534;6.378;2023-02-18T02:12:14;42.59;41.30;43.68;;
56099;Laerm;44276;49.534;6.378;2023-02-18T02:15:07;42.60;41.38;43.94;;
56099;Laerm;44276;49.534;6.378;2023-02-18T02:17:52;42.58;41.06;43.68;;
56099;Laerm;44276;49.534;6.378;2023-02-18T02:24:23;42.57;41.06;43.63;;
56099;Laerm;44276;49.534;6.378;2023-02-18T02:27:11;42.58;40.98;43.77;;
56099;Laerm;44276;49.534;6.378;2023-02-18T02:33:54;42.65;41.14;44.94;;
56099;Laerm;44276;49.534;6.378;2023-02-18T02:36:36;42.67;41.22;44.03;;
56099;Laerm;44276;49.534;6.378;2023-02-18T02:39:16;42.63;41.06;45.07;;
56099;Laerm;44276;49.534;6.378;2023-02-18T02:41:57;42.59;41.30;44.23;;
56099;Laerm;44276;49.534;6.378;2023-02-18T02:44:38;42.60;41.30;44.23;;
56099;Laerm;44276;49.534;6.378;2023-02-18T02:47:13;42.64;41.30;44.94;;
56099;Laerm;44276;49.534;6.378;2023-02-18T02:49:54;42.61;41.14;43.81;;
56099;Laerm;44276;49.534;6.378;2023-02-18T02:52:32;42.68;41.14;45.69;;
56099;Laerm;44276;49.534;6.378;2023-02-18T02:55:04;42.60;41.06;43.81;;
56099;Laerm;44276;49.534;6.378;2023-02-18T02:57:49;42.59;41.22;43.81;;
56099;Laerm;44276;49.534;6.378;2023-02-18T03:00:22;42.59;41.14;43.86;;
56099;Laerm;44276;49.534;6.378;2023-02-18T03:03:42;42.60;41.06;43.93;;
56099;Laerm;44276;49.534;6.378;2023-02-18T03:06:36;42.57;41.06;43.72;;
56099;Laerm;44276;49.534;6.378;2023-02-18T03:09:27;42.58;40.71;43.63;;
56099;Laerm;44276;49.534;6.378;2023-02-18T03:12:07;42.56;41.22;43.77;;
56099;Laerm;44276;49.534;6.378;2023-02-18T03:14:46;42.56;41.14;43.77;;
56099;Laerm;44276;49.534;6.378;2023-02-18T03:17:25;42.60;41.30;43.77;;
56099;Laerm;44276;49.534;6.378;2023-02-18T03:20:03;42.59;41.30;43.77;;
56099;Laerm;44276;49.534;6.378;2023-02-18T03:22:42;42.57;41.14;43.72;;
56099;Laerm;44276;49.534;6.378;2023-02-18T03:25:15;42.56;41.30;43.72;;
56099;Laerm;44276;49.534;6.378;2023-02-18T03:27:52;42.54;41.22;43.77;;
56099;Laerm;44276;49.534;6.378;2023-02-18T03:30:26;42.52;41.14;43.72;;
56099;Laerm;44276;49.534;6.378;2023-02-18T03:33:00;42.52;41.14;43.68;;
56099;Laerm;44276;49.534;6.378;2023-02-18T03:35:37;42.52;41.22;43.58;;
56099;Laerm;44276;49.534;6.378;2023-02-18T03:38:13;42.52;41.06;43.58;;
56099;Laerm;44276;49.534;6.378;2023-02-18T03:40:51;42.52;40.98;43.58;;
56099;Laerm;44276;49.534;6.378;2023-02-18T03:43:20;42.51;41.14;43.63;;
56099;Laerm;44276;49.534;6.378;2023-02-18T03:45:51;42.52;41.06;44.92;;
56099;Laerm;44276;49.534;6.378;2023-02-18T03:48:19;42.53;41.14;43.63;;
56099;Laerm;44276;49.534;6.378;2023-02-18T03:50:48;42.53;41.14;44.11;;
56099;Laerm;44276;49.534;6.378;2023-02-18T03:53:16;42.54;41.22;43.90;;
56099;Laerm;44276;49.534;6.378;2023-02-18T03:55:47;42.51;41.30;43.68;;
56099;Laerm;44276;49.534;6.378;2023-02-18T03:58:19;42.54;41.14;43.94;;
56099;Laerm;44276;49.534;6.378;2023-02-18T04:00:48;42.56;40.98;43.68;;
56099;Laerm;44276;49.534;6.378;2023-02-18T04:03:21;42.56;41.22;44.03;;
56099;Laerm;44276;49.534;6.378;2023-02-18T04:05:53;42.53;41.38;43.85;;
56099;Laerm;44276;49.534;6.378;2023-02-18T04:08:22;42.55;41.06;43.68;;
56099;Laerm;44276;49.534;6.378;2023-02-18T04:10:52;42.57;41.22;44.65;;
56099;Laerm;44276;49.534;6.378;2023-02-18T04:13:46;42.55;41.30;43.72;;
56099;Laerm;44276;49.534;6.378;2023-02-18T04:16:15;42.51;40.98;43.77;;
56099;Laerm;44276;49.534;6.378;2023-02-18T04:18:46;42.52;41.14;43.63;;
56099;Laerm;44276;49.534;6.378;2023-02-18T04:21:14;42.51;41.14;43.72;;
56099;Laerm;44276;49.534;6.378;2023-02-18T04:23:43;42.51;41.06;43.68;;
56099;Laerm;44276;49.534;6.378;2023-02-18T04:26:12;42.51;41.22;43.63;;
56099;Laerm;44276;49.534;6.378;2023-02-18T04:28:40;42.50;41.06;44.27;;
56099;Laerm;44276;49.534;6.378;2023-02-18T04:31:08;42.49;41.22;43.94;;
56099;Laerm;44276;49.534;6.378;2023-02-18T04:33:37;42.52;41.06;43.81;;
56099;Laerm;44276;49.534;6.378;2023-02-18T04:36:06;42.51;41.06;43.63;;
56099;Laerm;44276;49.534;6.378;2023-02-18T04:38:35;42.54;41.06;44.15;;
56099;Laerm;44276;49.534;6.378;2023-02-18T04:41:03;42.50;40.98;43.68;;
56099;Laerm;44276;49.534;6.378;2023-02-18T04:43:34;42.58;40.98;48.20;;
56099;Laerm;44276;49.534;6.378;2023-02-18T04:46:02;42.54;41.22;44.07;;
56099;Laerm;44276;49.534;6.378;2023-02-18T04:48:30;42.59;41.06;44.35;;
56099;Laerm;44276;49.534;6.378;2023-02-18T04:50:58;42.64;41.30;44.43;;
56099;Laerm;44276;49.534;6.378;2023-02-18T04:53:26;42.54;41.22;43.68;;
56099;Laerm;44276;49.534;6.378;2023-02-18T04:55:55;42.57;41.06;44.56;;
56099;Laerm;44276;49.534;6.378;2023-02-18T04:58:23;42.59;41.30;44.73;;
56099;Laerm;44276;49.534;6.378;2023-02-18T05:00:52;42.52;41.22;43.99;;
56099;Laerm;44276;49.534;6.378;2023-02-18T05:03:22;42.46;41.14;43.63;;
56099;Laerm;44276;49.534;6.378;2023-02-18T05:05:50;42.53;41.06;44.76;;
56099;Laerm;44276;49.534;6.378;2023-02-18T05:08:18;42.47;40.98;43.58;;
56099;Laerm;44276;49.534;6.378;2023-02-18T05:10:46;42.44;41.06;43.77;;
56099;Laerm;44276;49.534;6.378;2023-02-18T05:13:14;42.46;41.22;43.46;;
56099;Laerm;44276;49.534;6.378;2023-02-18T05:15:43;42.43;40.89;43.94;;
56099;Laerm;44276;49.534;6.378;2023-02-18T05:18:12;42.40;41.06;43.58;;
56099;Laerm;44276;49.534;6.378;2023-02-18T05:20:40;42.36;40.71;43.54;;
56099;Laerm;44276;49.534;6.378;2023-02-18T05:23:08;42.40;40.80;43.63;;
56099;Laerm;44276;49.534;6.378;2023-02-18T05:25:36;42.38;41.03;43.63;;
56099;Laerm;44276;49.534;6.378;2023-02-18T05:28:04;42.38;41.06;43.58;;
56099;Laerm;44276;49.534;6.378;2023-02-18T05:30:33;42.42;40.98;44.34;;
56099;Laerm;44276;49.534;6.378;2023-02-18T05:33:01;42.36;40.23;43.77;;
56099;Laerm;44276;49.534;6.378;2023-02-18T05:35:30;42.31;40.62;43.44;;
56099;Laerm;44276;49.534;6.378;2023-02-18T05:37:58;42.32;40.80;43.68;;
56099;Laerm;44276;49.534;6.378;2023-02-18T05:40:26;42.31;40.80;43.86;;
56099;Laerm;44276;49.534;6.378;2023-02-18T05:42:55;42.31;40.80;43.54;;
56099;Laerm;44276;49.534;6.378;2023-02-18T05:45:23;42.35;40.89;44.94;;
56099;Laerm;44276;49.534;6.378;2023-02-18T05:47:51;42.43;40.98;50.03;;
56099;Laerm;44276;49.534;6.378;2023-02-18T05:50:19;42.67;41.06;51.10;;
56099;Laerm;44276;49.534;6.378;2023-02-18T05:52:49;42.67;40.62;49.00;;
56099;Laerm;44276;49.534;6.378;2023-02-18T05:55:17;42.38;40.43;47.02;;
56099;Laerm;44276;49.534;6.378;2023-02-18T05:57:45;43.02;40.33;52.19;;
56099;Laerm;44276;49.534;6.378;2023-02-18T06:00:14;42.27;40.53;45.89;;
56099;Laerm;44276;49.534;6.378;2023-02-18T06:02:43;43.22;40.71;54.88;;
56099;Laerm;44276;49.534;6.378;2023-02-18T06:05:11;42.51;40.71;48.87;;
56099;Laerm;44276;49.534;6.378;2023-02-18T06:07:39;42.36;40.62;47.30;;
56099;Laerm;44276;49.534;6.378;2023-02-18T06:10:09;43.19;40.89;51.26;;
56099;Laerm;44276;49.534;6.378;2023-02-18T06:12:37;42.61;40.62;50.01;;
56099;Laerm;44276;49.534;6.378;2023-02-18T06:15:06;46.35;40.80;59.85;;
56099;Laerm;44276;49.534;6.378;2023-02-18T06:17:35;43.78;40.43;55.69;;
56099;Laerm;44276;49.534;6.378;2023-02-18T06:20:04;42.44;40.23;47.54;;
56099;Laerm;44276;49.534;6.378;2023-02-18T06:22:32;43.74;40.62;53.68;;
56099;Laerm;44276;49.534;6.378;2023-02-18T06:25:00;43.29;40.13;53.24;;
56099;Laerm;44276;49.534;6.378;2023-02-18T06:27:30;43.26;40.43;51.47;;
56099;Laerm;44276;49.534;6.378;2023-02-18T06:29:58;42.36;40.33;47.74;;
56099;Laerm;44276;49.534;6.378;2023-02-18T06:32:26;43.03;40.43;57.74;;
56099;Laerm;44276;49.534;6.378;2023-02-18T06:34:54;43.61;40.03;55.66;;
56099;Laerm;44276;49.534;6.378;2023-02-18T06:37:23;44.71;40.33;60.59;;
56099;Laerm;44276;49.534;6.378;2023-02-18T06:39:51;44.94;40.43;60.35;;
56099;Laerm;44276;49.534;6.378;2023-02-18T06:42:19;45.44;40.33;62.13;;
56099;Laerm;44276;49.534;6.378;2023-02-18T06:44:49;46.43;40.33;63.15;;
56099;Laerm;44276;49.534;6.378;2023-02-18T06:47:17;42.62;39.68;53.27;;
56099;Laerm;44276;49.534;6.378;2023-02-18T06:49:45;42.71;39.46;51.59;;
56099;Laerm;44276;49.534;6.378;2023-02-18T06:52:13;42.09;39.70;52.39;;
56099;Laerm;44276;49.534;6.378;2023-02-18T06:54:41;42.95;39.92;54.86;;
56099;Laerm;44276;49.534;6.378;2023-02-18T06:57:09;41.86;39.92;44.51;;
56099;Laerm;44276;49.534;6.378;2023-02-18T06:59:38;42.59;39.58;53.17;;
56099;Laerm;44276;49.534;6.378;2023-02-18T07:02:09;41.61;39.92;44.94;;
56099;Laerm;44276;49.534;6.378;2023-02-18T07:04:37;42.30;39.81;50.74;;
56099;Laerm;44276;49.534;6.378;2023-02-18T07:07:05;42.19;40.03;51.91;;
56099;Laerm;44276;49.534;6.378;2023-02-18T07:09:33;43.96;40.13;54.14;;
56099;Laerm;44276;49.534;6.378;2023-02-18T07:12:02;42.27;39.68;48.78;;
56099;Laerm;44276;49.534;6.378;2023-02-18T07:14:30;42.05;39.46;45.60;;
56099;Laerm;44276;49.534;6.378;2023-02-18T07:16:58;44.09;39.58;52.51;;
56099;Laerm;44276;49.534;6.378;2023-02-18T07:19:28;42.46;39.34;51.08;;
56099;Laerm;44276;49.534;6.378;2023-02-18T07:21:56;42.70;39.58;52.12;;
56099;Laerm;44276;49.534;6.378;2023-02-18T07:24:24;42.45;39.58;54.82;;
56099;Laerm;44276;49.534;6.378;2023-02-18T07:26:52;41.90;39.89;48.08;;
56099;Laerm;44276;49.534;6.378;2023-02-18T07:29:20;42.55;39.70;50.72;;
56099;Laerm;44276;49.534;6.378;2023-02-18T07:31:48;42.03;39.70;48.64;;
56099;Laerm;44276;49.534;6.378;2023-02-18T07:34:16;43.44;39.70;55.80;;
56099;Laerm;44276;49.534;6.378;2023-02-18T07:36:46;44.28;39.70;60.70;;
56099;Laerm;44276;49.534;6.378;2023-02-18T07:39:14;42.07;39.08;48.84;;
56099;Laerm;44276;49.534;6.378;2023-02-18T07:41:46;43.31;39.46;55.75;;
56099;Laerm;44276;49.534;6.378;2023-02-18T07:44:14;43.34;38.95;53.57;;
56099;Laerm;44276;49.534;6.378;2023-02-18T07:46:42;47.65;39.78;60.27;;
56099;Laerm;44276;49.534;6.378;2023-02-18T07:49:14;43.04;39.21;54.56;;
56099;Laerm;44276;49.534;6.378;2023-02-18T07:51:42;47.93;39.46;64.57;;
56099;Laerm;44276;49.534;6.378;2023-02-18T07:54:11;51.94;38.05;68.04;;
56099;Laerm;44276;49.534;6.378;2023-02-18T07:56:39;43.63;39.34;56.46;;
56099;Laerm;44276;49.534;6.378;2023-02-18T07:59:09;45.33;39.21;60.66;;
56099;Laerm;44276;49.534;6.378;2023-02-18T08:01:37;43.89;39.08;56.92;;
56099;Laerm;44276;49.534;6.378;2023-02-18T08:04:06;44.40;38.95;59.27;;
56099;Laerm;44276;49.534;6.378;2023-02-18T08:06:37;45.82;39.58;67.12;;
56099;Laerm;44276;49.534;6.378;2023-02-18T08:09:06;55.35;40.53;74.23;;
56099;Laerm;44276;49.534;6.378;2023-02-18T08:11:37;50.70;39.92;65.37;;
56099;Laerm;44276;49.534;6.378;2023-02-18T08:14:05;54.59;39.70;70.43;;
56099;Laerm;44276;49.534;6.378;2023-02-18T08:16:34;52.53;40.03;66.60;;
56099;Laerm;44276;49.534;6.378;2023-02-18T08:19:03;58.73;39.81;78.53;;
56099;Laerm;44276;49.534;6.378;2023-02-18T08:21:31;52.78;39.92;69.51;;
56099;Laerm;44276;49.534;6.378;2023-02-18T08:23:59;55.85;39.81;75.74;;
56099;Laerm;44276;49.534;6.378;2023-02-18T08:26:28;55.06;40.13;75.16;;
56099;Laerm;44276;49.534;6.378;2023-02-18T08:28:57;50.65;38.95;67.21;;
56099;Laerm;44276;49.534;6.378;2023-02-18T08:31:29;55.38;39.46;73.84;;
56099;Laerm;44276;49.534;6.378;2023-02-18T08:33:58;54.77;39.58;75.97;;
56099;Laerm;44276;49.534;6.378;2023-02-18T08:36:28;52.83;38.95;73.65;;
56099;Laerm;44276;49.534;6.378;2023-02-18T08:38:57;47.64;39.70;62.72;;
56099;Laerm;44276;49.534;6.378;2023-02-18T08:41:25;54.64;39.46;73.21;;
56099;Laerm;44276;49.534;6.378;2023-02-18T08:43:53;46.35;39.08;62.24;;
56099;Laerm;44276;49.534;6.378;2023-02-18T08:46:22;44.82;39.34;59.26;;
56099;Laerm;44276;49.534;6.378;2023-02-18T08:49:02;44.47;39.34;57.89;;
56099;Laerm;44276;49.534;6.378;2023-02-18T08:51:30;43.11;38.81;54.59;;
56099;Laerm;44276;49.534;6.378;2023-02-18T08:53:58;43.17;39.58;51.73;;
56099;Laerm;44276;49.534;6.378;2023-02-18T08:56:26;45.06;38.95;59.98;;
56099;Laerm;44276;49.534;6.378;2023-02-18T08:58:54;46.51;39.70;64.92;;
56099;Laerm;44276;49.534;6.378;2023-02-18T09:01:24;49.14;39.58;69.51;;
56099;Laerm;44276;49.534;6.378;2023-02-18T09:03:52;42.10;38.95;50.37;;
56099;Laerm;44276;49.534;6.378;2023-02-18T09:06:20;44.07;39.34;58.35;;
56099;Laerm;44276;49.534;6.378;2023-02-18T09:08:49;45.89;39.21;62.79;;
56099;Laerm;44276;49.534;6.378;2023-02-18T09:11:18;47.38;39.21;63.95;;
56099;Laerm;44276;49.534;6.378;2023-02-18T09:13:46;44.19;39.34;60.69;;
56099;Laerm;44276;49.534;6.378;2023-02-18T09:16:17;48.97;39.34;67.52;;
56099;Laerm;44276;49.534;6.378;2023-02-18T09:18:47;54.69;39.21;76.36;;
56099;Laerm;44276;49.534;6.378;2023-02-18T09:21:16;46.31;39.81;61.95;;
56099;Laerm;44276;49.534;6.378;2023-02-18T09:23:46;53.24;39.92;73.19;;
56099;Laerm;44276;49.534;6.378;2023-02-18T09:26:17;53.77;39.70;70.26;;
56099;Laerm;44276;49.534;6.378;2023-02-18T09:28:47;50.60;40.13;67.82;;
56099;Laerm;44276;49.534;6.378;2023-02-18T09:31:18;43.16;39.21;60.72;;
56099;Laerm;44276;49.534;6.378;2023-02-18T09:33:50;45.71;39.23;66.43;;
56099;Laerm;44276;49.534;6.378;2023-02-18T09:36:19;48.12;39.34;64.84;;
56099;Laerm;44276;49.534;6.378;2023-02-18T09:38:48;50.79;39.58;73.02;;
56099;Laerm;44276;49.534;6.378;2023-02-18T09:41:31;52.30;39.81;72.82;;
56099;Laerm;44276;49.534;6.378;2023-02-18T09:44:04;45.17;39.58;59.71;;
56099;Laerm;44276;49.534;6.378;2023-02-18T09:46:41;53.21;40.43;72.15;;
56099;Laerm;44276;49.534;6.378;2023-02-18T09:49:17;52.58;39.70;72.88;;
56099;Laerm;44276;49.534;6.378;2023-02-18T09:51:46;43.81;39.58;59.70;;
56099;Laerm;44276;49.534;6.378;2023-02-18T09:54:17;42.78;39.46;51.72;;
56099;Laerm;44276;49.534;6.378;2023-02-18T09:56:48;44.15;39.34;57.56;;
56099;Laerm;44276;49.534;6.378;2023-02-18T09:59:19;50.04;39.08;68.47;;
56099;Laerm;44276;49.534;6.378;2023-02-18T10:01:51;48.72;39.21;68.84;;
56099;Laerm;44276;49.534;6.378;2023-02-18T10:04:27;42.45;38.95;49.25;;
56099;Laerm;44276;49.534;6.378;2023-02-18T10:06:57;42.52;39.08;54.79;;
56099;Laerm;44276;49.534;6.378;2023-02-18T10:09:33;45.26;39.34;59.07;;
56099;Laerm;44276;49.534;6.378;2023-02-18T10:12:12;47.86;40.03;66.94;;
56099;Laerm;44276;49.534;6.378;2023-02-18T10:14:43;45.43;39.21;64.53;;
56099;Laerm;44276;49.534;6.378;2023-02-18T10:17:16;54.53;39.46;74.33;;
56099;Laerm;44276;49.534;6.378;2023-02-18T10:19:48;43.66;39.34;55.25;;
56099;Laerm;44276;49.534;6.378;2023-02-18T10:22:19;49.60;39.34;65.99;;
56099;Laerm;44276;49.534;6.378;2023-02-18T10:24:51;47.13;39.58;61.78;;
56099;Laerm;44276;49.534;6.378;2023-02-18T10:27:26;48.64;39.81;67.05;;
56099;Laerm;44276;49.534;6.378;2023-02-18T10:30:16;54.82;39.34;71.03;;
56099;Laerm;44276;49.534;6.378;2023-02-18T10:32:51;51.17;39.46;70.87;;
56099;Laerm;44276;49.534;6.378;2023-02-18T10:35:29;50.40;39.08;71.59;;
56099;Laerm;44276;49.534;6.378;2023-02-18T10:38:12;45.53;39.34;59.69;;
56099;Laerm;44276;49.534;6.378;2023-02-18T10:40:56;50.41;39.08;67.29;;
56099;Laerm;44276;49.534;6.378;2023-02-18T10:43:39;52.41;39.70;69.03;;
56099;Laerm;44276;49.534;6.378;2023-02-18T10:46:24;45.09;39.46;58.51;;
56099;Laerm;44276;49.534;6.378;2023-02-18T10:49:19;48.16;39.46;67.02;;
56099;Laerm;44276;49.534;6.378;2023-02-18T10:51:56;51.41;39.92;70.17;;
56099;Laerm;44276;49.534;6.378;2023-02-18T10:54:48;46.85;38.95;66.63;;
56099;Laerm;44276;49.534;6.378;2023-02-18T10:57:19;50.89;39.70;67.11;;
56099;Laerm;44276;49.534;6.378;2023-02-18T11:00:02;55.97;40.62;79.35;;
56099;Laerm;44276;49.534;6.378;2023-02-18T11:02:38;55.16;39.58;72.39;;
56099;Laerm;44276;49.534;6.378;2023-02-18T11:05:22;54.11;39.92;72.49;;
56099;Laerm;44276;49.534;6.378;2023-02-18T11:07:56;54.16;39.58;71.50;;
56099;Laerm;44276;49.534;6.378;2023-02-18T11:10:30;47.73;39.70;64.80;;
56099;Laerm;44276;49.534;6.378;2023-02-18T11:13:01;44.44;39.34;61.39;;
56099;Laerm;44276;49.534;6.378;2023-02-18T11:15:31;45.54;39.34;60.58;;
56099;Laerm;44276;49.534;6.378;2023-02-18T11:18:13;44.88;38.67;61.55;;
56099;Laerm;44276;49.534;6.378;2023-02-18T11:20:55;43.83;39.70;56.46;;
56099;Laerm;44276;49.534;6.378;2023-02-18T11:23:25;44.48;39.92;56.63;;
56099;Laerm;44276;49.534;6.378;2023-02-18T11:26:02;49.86;39.58;65.73;;
56099;Laerm;44276;49.534;6.378;2023-02-18T11:28:41;45.73;39.23;58.62;;
56099;Laerm;44276;49.534;6.378;2023-02-18T11:31:21;46.61;38.67;66.26;;
56099;Laerm;44276;49.534;6.378;2023-02-18T11:33:54;55.59;39.46;74.51;;
56099;Laerm;44276;49.534;6.378;2023-02-18T11:36:27;62.71;40.53;76.52;;
56099;Laerm;44276;49.534;6.378;2023-02-18T11:38:59;48.22;39.34;64.52;;
56099;Laerm;44276;49.534;6.378;2023-02-18T11:41:35;48.50;38.81;62.79;;
56099;Laerm;44276;49.534;6.378;2023-02-18T11:44:16;49.59;39.21;65.40;;
56099;Laerm;44276;49.534;6.378;2023-02-18T11:46:58;45.16;38.95;58.51;;
56099;Laerm;44276;49.534;6.378;2023-02-18T11:49:28;48.06;38.95;64.16;;
56099;Laerm;44276;49.534;6.378;2023-02-18T11:52:15;49.90;39.81;67.62;;
56099;Laerm;44276;49.534;6.378;2023-02-18T11:55:00;48.61;39.34;62.02;;
56099;Laerm;44276;49.534;6.378;2023-02-18T11:57:29;47.04;38.95;60.84;;
56099;Laerm;44276;49.534;6.378;2023-02-18T11:59:59;52.22;40.23;76.12;;
56099;Laerm;44276;49.534;6.378;2023-02-18T12:02:35;57.92;39.34;74.05;;
56099;Laerm;44276;49.534;6.378;2023-02-18T12:05:13;49.57;38.95;66.48;;
56099;Laerm;44276;49.534;6.378;2023-02-18T12:07:46;48.49;40.03;63.65;;
56099;Laerm;44276;49.534;6.378;2023-02-18T12:10:24;47.01;39.21;67.90;;
56099;Laerm;44276;49.534;6.378;2023-02-18T12:13:00;49.19;39.08;67.68;;
56099;Laerm;44276;49.534;6.378;2023-02-18T12:15:45;47.88;39.34;66.06;;
56099;Laerm;44276;49.534;6.378;2023-02-18T12:18:56;53.18;39.46;72.51;;
56099;Laerm;44276;49.534;6.378;2023-02-18T12:21:40;54.42;39.21;71.82;;
56099;Laerm;44276;49.534;6.378;2023-02-18T12:24:23;45.26;39.21;59.71;;
56099;Laerm;44276;49.534;6.378;2023-02-18T12:27:08;44.78;39.46;62.39;;
56099;Laerm;44276;49.534;6.378;2023-02-18T12:30:17;56.15;38.81;70.17;;
56099;Laerm;44276;49.534;6.378;2023-02-18T12:32:59;50.16;39.81;69.65;;
56099;Laerm;44276;49.534;6.378;2023-02-18T12:35:46;52.14;38.67;69.58;;
56099;Laerm;44276;49.534;6.378;2023-02-18T12:38:54;46.83;40.03;61.94;;
56099;Laerm;44276;49.534;6.378;2023-02-18T12:42:15;52.97;38.81;72.63;;
56099;Laerm;44276;49.534;6.378;2023-02-18T12:45:06;47.19;39.81;65.11;;
56099;Laerm;44276;49.534;6.378;2023-02-18T12:48:15;49.17;39.34;68.87;;
56099;Laerm;44276;49.534;6.378;2023-02-18T12:51:03;51.52;39.21;67.10;;
56099;Laerm;44276;49.534;6.378;2023-02-18T12:54:09;47.07;39.46;59.84;;
56099;Laerm;44276;49.534;6.378;2023-02-18T12:56:56;43.25;38.95;55.88;;
56099;Laerm;44276;49.534;6.378;2023-02-18T13:00:00;54.18;40.03;69.76;;
56099;Laerm;44276;49.534;6.378;2023-02-18T13:02:56;47.62;39.70;61.31;;
56099;Laerm;44276;49.534;6.378;2023-02-18T13:05:42;45.87;38.95;58.72;;
56099;Laerm;44276;49.534;6.378;2023-02-18T13:08:30;45.59;38.81;59.78;;
56099;Laerm;44276;49.534;6.378;2023-02-18T13:11:26;45.93;39.08;61.76;;
56099;Laerm;44276;49.534;6.378;2023-02-18T13:14:03;42.04;38.87;49.40;;
56099;Laerm;44276;49.534;6.378;2023-02-18T13:16:38;51.21;38.52;65.54;;
56099;Laerm;44276;49.534;6.378;2023-02-18T13:19:19;45.66;39.34;63.28;;
56099;Laerm;44276;49.534;6.378;2023-02-18T13:21:51;45.17;39.92;61.02;;
56099;Laerm;44276;49.534;6.378;2023-02-18T13:24:29;47.72;39.46;65.66;;
56099;Laerm;44276;49.534;6.378;2023-02-18T13:27:12;42.29;39.08;48.58;;
56099;Laerm;44276;49.534;6.378;2023-02-18T13:29:52;44.52;38.95;57.85;;
56099;Laerm;44276;49.534;6.378;2023-02-18T13:32:34;49.84;39.34;68.20;;
56099;Laerm;44276;49.534;6.378;2023-02-18T13:35:16;55.81;38.81;72.56;;
56099;Laerm;44276;49.534;6.378;2023-02-18T13:37:56;50.43;40.13;68.65;;
56099;Laerm;44276;49.534;6.378;2023-02-18T13:40:30;45.81;39.46;62.13;;
56099;Laerm;44276;49.534;6.378;2023-02-18T13:43:28;47.16;39.58;61.82;;
56099;Laerm;44276;49.534;6.378;2023-02-18T13:46:19;51.28;39.92;67.96;;
56099;Laerm;44276;49.534;6.378;2023-02-18T13:48:51;49.19;39.08;63.35;;
56099;Laerm;44276;49.534;6.378;2023-02-18T13:51:30;42.04;39.08;46.28;;
56099;Laerm;44276;49.534;6.378;2023-02-18T13:54:04;48.00;40.13;69.32;;
56099;Laerm;44276;49.534;6.378;2023-02-18T13:56:42;42.98;39.34;57.64;;
56099;Laerm;44276;49.534;6.378;2023-02-18T13:59:19;43.51;39.57;59.30;;
56099;Laerm;44276;49.534;6.378;2023-02-18T14:01:51;47.40;38.95;59.56;;
56099;Laerm;44276;49.534;6.378;2023-02-18T14:04:52;43.41;39.08;55.12;;
56099;Laerm;44276;49.534;6.378;2023-02-18T14:07:44;42.38;39.46;53.90;;
56099;Laerm;44276;49.534;6.378;2023-02-18T14:10:31;44.34;39.46;59.83;;
56099;Laerm;44276;49.534;6.378;2023-02-18T14:16:00;43.19;39.21;53.70;;
56099;Laerm;44276;49.534;6.378;2023-02-18T14:18:58;49.64;39.92;65.53;;
56099;Laerm;44276;49.534;6.378;2023-02-18T14:21:42;52.97;39.81;67.12;;
56099;Laerm;44276;49.534;6.378;2023-02-18T14:24:11;50.04;39.92;62.65;;
56099;Laerm;44276;49.534;6.378;2023-02-18T14:26:45;47.44;39.92;60.93;;
56099;Laerm;44276;49.534;6.378;2023-02-18T14:29:25;47.51;39.46;61.93;;
56099;Laerm;44276;49.534;6.378;2023-02-18T14:31:59;50.72;39.08;69.71;;
56099;Laerm;44276;49.534;6.378;2023-02-18T14:34:56;45.63;38.95;64.22;;